WetterOnline ( https://www.wetteronline.de )

Wetter aktuell Kempten/Allgäu

Aktuelles Wetter: Kempten (705m)

6-stündlich | Neueste Meldungen
Ortszeit Temperatur Wetter
So, 14.08. 8:00 13.9° C wolkig
So, 14.08. 2:00 11.1° C wolkenlos
Sa, 13.08. 20:00 21.2° C leicht bewölkt
Sa, 13.08. 14:00 22.5° C leicht bewölkt
Sa, 13.08. 8:00 12.9° C wolkenlos
Sa, 13.08. 2:00 10.6° C wolkenlos
Fr, 12.08. 20:00 20.8° C wolkenlos
Fr, 12.08. 14:00 22.1° C leicht bewölkt
Ortszeit Temperatur Wetter
So, 14.08. 10:10 20.0° C leicht bewölkt
So, 14.08. 10:00 18.8° C leicht bewölkt
So, 14.08. 9:50 18.8° C wolkig
So, 14.08. 9:40 18.6° C bewölkt
So, 14.08. 9:30 17.1° C wolkig
So, 14.08. 9:20 17.1° C wolkig
So, 14.08. 9:00 16.3° C leicht bewölkt
So, 14.08. 8:30 15.1° C wolkig
So, 14.08. 8:00 13.9° C wolkig
So, 14.08. 7:30 11.1° C wolkig
Ortszeit Relative Feuchte Sichtweite
So, 14.08. 8:00 73% 50 km
So, 14.08. 2:00 87% 55 km
Sa, 13.08. 20:00 50% 60 km
Sa, 13.08. 14:00 40% 65 km
Sa, 13.08. 8:00 76% 40 km
Sa, 13.08. 2:00 86% 55 km
Fr, 12.08. 20:00 43% 60 km
Fr, 12.08. 14:00 39% >70 km
Ortszeit Relative Feuchte Sichtweite
So, 14.08. 10:10 49% -
So, 14.08. 10:00 54% 50 km
So, 14.08. 9:50 54% -
So, 14.08. 9:40 56% -
So, 14.08. 9:30 58% 60 km
So, 14.08. 9:20 58% -
So, 14.08. 9:00 62% >70 km
So, 14.08. 8:30 66% >70 km
So, 14.08. 8:00 73% 50 km
So, 14.08. 7:30 85% 50 km
Ortszeit Niederschlagsmenge Niederschlagsart
So, 14.08. 8:00 0.0 l/m2 in 12 Std. -
So, 14.08. 2:00 0.0 l/m2 in 6 Std. -
Sa, 13.08. 20:00 0.0 l/m2 in 12 Std. -
Sa, 13.08. 14:00 0.0 l/m2 in 6 Std. -
Sa, 13.08. 8:00 0.0 l/m2 in 12 Std. -
Sa, 13.08. 2:00 0.0 l/m2 in 6 Std. -
Fr, 12.08. 20:00 0.0 l/m2 in 12 Std. -
Fr, 12.08. 14:00 0.0 l/m2 in 6 Std. -
Ortszeit Niederschlagsmenge Niederschlagsart
So, 14.08. 10:10 keine Meldung -
So, 14.08. 10:00 0.0 l/m2 in 1 Std. -
So, 14.08. 9:50 keine Meldung -
So, 14.08. 9:40 keine Meldung -
So, 14.08. 9:30 0.0 l/m2 in 1 Std. -
So, 14.08. 9:20 keine Meldung -
So, 14.08. 9:00 0.0 l/m2 in 1 Std. -
So, 14.08. 8:30 0.0 l/m2 in 1 Std. -
So, 14.08. 8:00 0.0 l/m2 in 1 Std. -
So, 14.08. 7:30 0.0 l/m2 in 1 Std. -
Ortszeit Stärke Spitze Richtung
km/h Bft. km/h Grad Sektor
So, 14.08. 8:00 7 2 14 110° O
So, 14.08. 2:00 7 2 13 110° O
Sa, 13.08. 20:00 6 1 28 80° O
Sa, 13.08. 14:00 11 2 29 70° O
Sa, 13.08. 8:00 2 1 9 110° O
Sa, 13.08. 2:00 4 1 11 20° N
Fr, 12.08. 20:00 6 1 31 70° O
Fr, 12.08. 14:00 13 3 33 60° NO
Ortszeit Stärke Spitze Richtung
km/h Bft. km/h Grad Sektor
So, 14.08. 10:10 4 1 - 130° SO
So, 14.08. 10:00 4 1 7 170° S
So, 14.08. 9:50 4 1 - 170° S
So, 14.08. 9:40 4 1 - 150° SO
So, 14.08. 9:30 4 1 7 180° S
So, 14.08. 9:20 4 1 - 180° S
So, 14.08. 9:00 6 1 11 150° SO
So, 14.08. 8:30 4 1 11 170° S
So, 14.08. 8:00 7 2 11 110° O
So, 14.08. 7:30 6 1 9 130° SO
Ortszeit Untergrenze Bedeckung Gattung
total tief tief mittel hoch
So, 14.08. 8:00 9000 m 8/8 0/8 - - -
So, 14.08. 2:00 - 0/8 0/8 - - -
Sa, 13.08. 20:00 8700 m 8/8 0/8 - - -
Sa, 13.08. 14:00 8700 m 8/8 0/8 - - -
Sa, 13.08. 8:00 - 0/8 0/8 - - -
Sa, 13.08. 2:00 - 0/8 0/8 - - -
Fr, 12.08. 20:00 - 0/8 0/8 - - -
Fr, 12.08. 14:00 5100 m 3/8 3/8 - - -
Ortszeit Bedeckungsgrad in Achtel und Wolkenuntergrenze
So, 14.08. 10:10 4
So, 14.08. 10:00 2(8700m) 7(9000m)
So, 14.08. 9:50 2(8700m) 7(9000m)
So, 14.08. 9:40 7
So, 14.08. 9:30 8(8700m)
So, 14.08. 9:20 8(8700m)
So, 14.08. 9:00 8(8700m)
So, 14.08. 8:30 8(9000m)
So, 14.08. 8:00 6(9000m) 8(9000m)
So, 14.08. 7:30 8(9000m) 8(10500m)
Ortszeit Luftdruck NN (hPa) Tendenz (hPa in 3 Std.)
So, 14.08. 8:00 1011 - 1,1
So, 14.08. 2:00 1015 - 0,5
Sa, 13.08. 20:00 1013 - 0,4
Sa, 13.08. 14:00 1013 - 0,1
Sa, 13.08. 8:00 1016 - 0,1
Sa, 13.08. 2:00 1018 - 0,7
Fr, 12.08. 20:00 1015 - 0,1
Fr, 12.08. 14:00 1015 - 0,9
Ortszeit Luftdruck NN (hPa) Tendenz (hPa in 3 Std.)
So, 14.08. 10:10 1009 keine Meldung
So, 14.08. 10:00 1009 - 0,8
So, 14.08. 9:50 1009 keine Meldung
So, 14.08. 9:40 1009 keine Meldung
So, 14.08. 9:30 1010 - 0,8
So, 14.08. 9:20 1010 keine Meldung
So, 14.08. 9:00 1010 - 0,9
So, 14.08. 8:30 1011 - 0,7
So, 14.08. 8:00 1011 - 1,1
So, 14.08. 7:30 1012 - 1,2
Ortszeit Schneehöhe (cm)
So, 14.08. 8:00 0
So, 14.08. 2:00 0
Sa, 13.08. 20:00 0
Sa, 13.08. 14:00 0
Sa, 13.08. 8:00 0
Sa, 13.08. 2:00 0
Fr, 12.08. 20:00 0
Fr, 12.08. 14:00 0
Ortszeit Schneehöhe (cm)
So, 14.08. 10:10 0
So, 14.08. 10:00 0
So, 14.08. 9:50 0
So, 14.08. 9:40 0
So, 14.08. 9:30 0
So, 14.08. 9:20 0
So, 14.08. 9:00 0
So, 14.08. 8:30 0
So, 14.08. 8:00 0
So, 14.08. 7:30 0
Link zu dieser Seite / Seite empfehlen

Das Wetter in ...